sensor_id;sensor_type;location;lat;lon;timestamp;P1;durP1;ratioP1;P2;durP2;ratioP2
79798;SDS011;69283;48.024;11.090;2023-07-22T00:00:15;9.50;;;4.72;;
79798;SDS011;69283;48.024;11.090;2023-07-22T00:02:42;16.92;;;5.60;;
79798;SDS011;69283;48.024;11.090;2023-07-22T00:05:08;9.25;;;5.32;;
79798;SDS011;69283;48.024;11.090;2023-07-22T00:07:35;11.63;;;4.80;;
79798;SDS011;69283;48.024;11.090;2023-07-22T00:10:00;11.07;;;5.15;;
79798;SDS011;69283;48.024;11.090;2023-07-22T00:12:26;11.37;;;5.17;;
79798;SDS011;69283;48.024;11.090;2023-07-22T00:14:51;10.20;;;4.53;;
79798;SDS011;69283;48.024;11.090;2023-07-22T00:17:18;8.20;;;4.28;;
79798;SDS011;69283;48.024;11.090;2023-07-22T00:19:44;9.05;;;4.63;;
79798;SDS011;69283;48.024;11.090;2023-07-22T00:22:09;9.00;;;4.47;;
79798;SDS011;69283;48.024;11.090;2023-07-22T00:24:34;11.75;;;5.40;;
79798;SDS011;69283;48.024;11.090;2023-07-22T00:27:00;8.90;;;4.22;;
79798;SDS011;69283;48.024;11.090;2023-07-22T00:29:25;8.60;;;3.97;;
79798;SDS011;69283;48.024;11.090;2023-07-22T00:31:51;8.48;;;4.63;;
79798;SDS011;69283;48.024;11.090;2023-07-22T00:34:16;9.68;;;4.68;;
79798;SDS011;69283;48.024;11.090;2023-07-22T00:36:41;9.30;;;4.23;;
79798;SDS011;69283;48.024;11.090;2023-07-22T00:39:07;8.82;;;4.63;;
79798;SDS011;69283;48.024;11.090;2023-07-22T00:41:32;8.88;;;4.55;;
79798;SDS011;69283;48.024;11.090;2023-07-22T00:43:57;7.70;;;4.07;;
79798;SDS011;69283;48.024;11.090;2023-07-22T00:46:23;10.05;;;4.75;;
79798;SDS011;69283;48.024;11.090;2023-07-22T00:48:48;9.52;;;4.88;;
79798;SDS011;69283;48.024;11.090;2023-07-22T00:51:15;10.05;;;4.50;;
79798;SDS011;69283;48.024;11.090;2023-07-22T00:53:40;8.10;;;4.63;;
79798;SDS011;69283;48.024;11.090;2023-07-22T00:56:05;9.93;;;5.03;;
79798;SDS011;69283;48.024;11.090;2023-07-22T00:58:31;9.30;;;4.78;;
79798;SDS011;69283;48.024;11.090;2023-07-22T01:00:57;10.45;;;4.60;;
79798;SDS011;69283;48.024;11.090;2023-07-22T01:03:23;13.23;;;4.45;;
79798;SDS011;69283;48.024;11.090;2023-07-22T01:05:51;7.93;;;4.32;;
79798;SDS011;69283;48.024;11.090;2023-07-22T01:08:18;9.70;;;4.55;;
79798;SDS011;69283;48.024;11.090;2023-07-22T01:10:43;8.97;;;4.50;;
79798;SDS011;69283;48.024;11.090;2023-07-22T01:13:09;8.60;;;4.10;;
79798;SDS011;69283;48.024;11.090;2023-07-22T01:15:34;8.32;;;4.35;;
79798;SDS011;69283;48.024;11.090;2023-07-22T01:18:00;10.52;;;4.75;;
79798;SDS011;69283;48.024;11.090;2023-07-22T01:20:30;12.25;;;4.90;;
79798;SDS011;69283;48.024;11.090;2023-07-22T01:22:56;10.90;;;3.97;;
79798;SDS011;69283;48.024;11.090;2023-07-22T01:25:22;9.63;;;5.05;;
79798;SDS011;69283;48.024;11.090;2023-07-22T01:27:51;10.63;;;4.38;;
79798;SDS011;69283;48.024;11.090;2023-07-22T01:30:17;11.40;;;5.13;;
79798;SDS011;69283;48.024;11.090;2023-07-22T01:32:43;13.57;;;4.97;;
79798;SDS011;69283;48.024;11.090;2023-07-22T01:35:08;8.75;;;4.70;;
79798;SDS011;69283;48.024;11.090;2023-07-22T01:37:34;10.57;;;4.40;;
79798;SDS011;69283;48.024;11.090;2023-07-22T01:39:59;13.15;;;5.30;;
79798;SDS011;69283;48.024;11.090;2023-07-22T01:42:25;12.82;;;5.40;;
79798;SDS011;69283;48.024;11.090;2023-07-22T01:44:50;13.73;;;4.60;;
79798;SDS011;69283;48.024;11.090;2023-07-22T01:47:15;9.73;;;4.68;;
79798;SDS011;69283;48.024;11.090;2023-07-22T01:49:41;7.40;;;4.10;;
79798;SDS011;69283;48.024;11.090;2023-07-22T01:52:07;8.73;;;3.97;;
79798;SDS011;69283;48.024;11.090;2023-07-22T01:54:32;7.20;;;3.90;;
79798;SDS011;69283;48.024;11.090;2023-07-22T01:56:58;11.75;;;4.43;;
79798;SDS011;69283;48.024;11.090;2023-07-22T01:59:23;8.40;;;3.65;;
79798;SDS011;69283;48.024;11.090;2023-07-22T02:01:49;8.25;;;4.40;;
79798;SDS011;69283;48.024;11.090;2023-07-22T02:04:14;8.10;;;4.25;;
79798;SDS011;69283;48.024;11.090;2023-07-22T02:06:39;8.27;;;4.33;;
79798;SDS011;69283;48.024;11.090;2023-07-22T02:09:04;7.97;;;3.97;;
79798;SDS011;69283;48.024;11.090;2023-07-22T02:11:33;7.15;;;4.05;;
79798;SDS011;69283;48.024;11.090;2023-07-22T02:14:00;9.35;;;3.92;;
79798;SDS011;69283;48.024;11.090;2023-07-22T02:16:25;12.10;;;3.90;;
79798;SDS011;69283;48.024;11.090;2023-07-22T02:18:50;10.93;;;4.03;;
79798;SDS011;69283;48.024;11.090;2023-07-22T02:21:16;9.27;;;3.60;;
79798;SDS011;69283;48.024;11.090;2023-07-22T02:23:41;11.10;;;5.03;;
79798;SDS011;69283;48.024;11.090;2023-07-22T02:26:07;9.68;;;4.55;;
79798;SDS011;69283;48.024;11.090;2023-07-22T02:28:33;9.80;;;3.97;;
79798;SDS011;69283;48.024;11.090;2023-07-22T02:31:00;7.93;;;3.60;;
79798;SDS011;69283;48.024;11.090;2023-07-22T02:33:31;10.45;;;3.65;;
79798;SDS011;69283;48.024;11.090;2023-07-22T02:35:56;10.25;;;4.07;;
79798;SDS011;69283;48.024;11.090;2023-07-22T02:38:22;9.98;;;4.10;;
79798;SDS011;69283;48.024;11.090;2023-07-22T02:40:47;11.40;;;4.03;;
79798;SDS011;69283;48.024;11.090;2023-07-22T02:43:12;12.47;;;4.03;;
79798;SDS011;69283;48.024;11.090;2023-07-22T02:45:37;7.95;;;4.10;;
79798;SDS011;69283;48.024;11.090;2023-07-22T02:48:03;11.07;;;3.83;;
79798;SDS011;69283;48.024;11.090;2023-07-22T02:50:28;8.52;;;3.80;;
79798;SDS011;69283;48.024;11.090;2023-07-22T02:52:55;9.35;;;3.45;;
79798;SDS011;69283;48.024;11.090;2023-07-22T02:55:21;9.98;;;3.92;;
79798;SDS011;69283;48.024;11.090;2023-07-22T02:57:47;11.73;;;4.22;;
79798;SDS011;69283;48.024;11.090;2023-07-22T03:00:13;8.95;;;3.80;;
79798;SDS011;69283;48.024;11.090;2023-07-22T03:02:48;9.05;;;4.05;;
79798;SDS011;69283;48.024;11.090;2023-07-22T03:05:29;9.02;;;4.35;;
79798;SDS011;69283;48.024;11.090;2023-07-22T03:07:56;9.23;;;4.00;;
79798;SDS011;69283;48.024;11.090;2023-07-22T03:10:22;11.75;;;3.70;;
79798;SDS011;69283;48.024;11.090;2023-07-22T03:12:48;9.10;;;3.85;;
79798;SDS011;69283;48.024;11.090;2023-07-22T03:15:14;6.93;;;3.17;;
79798;SDS011;69283;48.024;11.090;2023-07-22T03:17:40;5.67;;;3.37;;
79798;SDS011;69283;48.024;11.090;2023-07-22T03:20:08;7.95;;;3.42;;
79798;SDS011;69283;48.024;11.090;2023-07-22T03:22:39;8.65;;;4.18;;
79798;SDS011;69283;48.024;11.090;2023-07-22T03:25:04;6.93;;;3.38;;
79798;SDS011;69283;48.024;11.090;2023-07-22T03:27:32;7.47;;;3.97;;
79798;SDS011;69283;48.024;11.090;2023-07-22T03:29:58;15.27;;;5.13;;
79798;SDS011;69283;48.024;11.090;2023-07-22T03:32:23;7.87;;;3.70;;
79798;SDS011;69283;48.024;11.090;2023-07-22T03:34:48;7.67;;;3.73;;
79798;SDS011;69283;48.024;11.090;2023-07-22T03:37:14;7.32;;;3.90;;
79798;SDS011;69283;48.024;11.090;2023-07-22T03:39:39;6.68;;;3.75;;
79798;SDS011;69283;48.024;11.090;2023-07-22T03:42:05;7.97;;;3.55;;
79798;SDS011;69283;48.024;11.090;2023-07-22T03:44:30;9.68;;;4.32;;
79798;SDS011;69283;48.024;11.090;2023-07-22T03:46:56;8.48;;;3.67;;
79798;SDS011;69283;48.024;11.090;2023-07-22T03:49:21;6.72;;;3.45;;
79798;SDS011;69283;48.024;11.090;2023-07-22T03:51:46;7.90;;;3.80;;
79798;SDS011;69283;48.024;11.090;2023-07-22T03:54:12;10.57;;;4.57;;
79798;SDS011;69283;48.024;11.090;2023-07-22T03:56:39;10.55;;;3.17;;
79798;SDS011;69283;48.024;11.090;2023-07-22T03:59:05;7.50;;;3.28;;
79798;SDS011;69283;48.024;11.090;2023-07-22T04:01:31;9.17;;;3.43;;
79798;SDS011;69283;48.024;11.090;2023-07-22T04:03:56;8.52;;;4.20;;
79798;SDS011;69283;48.024;11.090;2023-07-22T04:06:21;7.13;;;3.45;;
79798;SDS011;69283;48.024;11.090;2023-07-22T04:08:47;7.03;;;3.50;;
79798;SDS011;69283;48.024;11.090;2023-07-22T04:11:12;11.32;;;4.10;;
79798;SDS011;69283;48.024;11.090;2023-07-22T04:13:39;8.25;;;3.03;;
79798;SDS011;69283;48.024;11.090;2023-07-22T04:16:04;11.73;;;4.28;;
79798;SDS011;69283;48.024;11.090;2023-07-22T04:18:30;9.45;;;3.60;;
79798;SDS011;69283;48.024;11.090;2023-07-22T04:20:59;8.43;;;3.75;;
79798;SDS011;69283;48.024;11.090;2023-07-22T04:23:25;13.80;;;4.78;;
79798;SDS011;69283;48.024;11.090;2023-07-22T04:25:51;7.72;;;3.97;;
79798;SDS011;69283;48.024;11.090;2023-07-22T04:28:16;10.15;;;3.65;;
79798;SDS011;69283;48.024;11.090;2023-07-22T04:30:42;9.27;;;3.67;;
79798;SDS011;69283;48.024;11.090;2023-07-22T04:33:07;7.80;;;3.65;;
79798;SDS011;69283;48.024;11.090;2023-07-22T04:35:37;7.43;;;3.60;;
79798;SDS011;69283;48.024;11.090;2023-07-22T04:40:28;6.10;;;3.20;;
79798;SDS011;69283;48.024;11.090;2023-07-22T04:42:55;7.60;;;2.70;;
79798;SDS011;69283;48.024;11.090;2023-07-22T04:45:22;5.68;;;2.75;;
79798;SDS011;69283;48.024;11.090;2023-07-22T04:47:48;9.27;;;3.90;;
79798;SDS011;69283;48.024;11.090;2023-07-22T04:50:15;10.43;;;3.63;;
79798;SDS011;69283;48.024;11.090;2023-07-22T04:52:42;7.78;;;3.40;;
79798;SDS011;69283;48.024;11.090;2023-07-22T04:55:09;6.85;;;3.13;;
79798;SDS011;69283;48.024;11.090;2023-07-22T04:57:35;7.85;;;3.53;;
79798;SDS011;69283;48.024;11.090;2023-07-22T05:00:01;6.40;;;2.92;;
79798;SDS011;69283;48.024;11.090;2023-07-22T05:02:31;7.53;;;3.25;;
79798;SDS011;69283;48.024;11.090;2023-07-22T05:04:57;9.55;;;3.00;;
79798;SDS011;69283;48.024;11.090;2023-07-22T05:07:22;10.10;;;3.53;;
79798;SDS011;69283;48.024;11.090;2023-07-22T05:09:49;9.57;;;3.13;;
79798;SDS011;69283;48.024;11.090;2023-07-22T05:12:14;8.57;;;3.08;;
79798;SDS011;69283;48.024;11.090;2023-07-22T05:14:39;6.57;;;3.43;;
79798;SDS011;69283;48.024;11.090;2023-07-22T05:17:05;8.53;;;4.23;;
79798;SDS011;69283;48.024;11.090;2023-07-22T05:19:30;9.10;;;3.28;;
79798;SDS011;69283;48.024;11.090;2023-07-22T05:21:56;7.60;;;3.40;;
79798;SDS011;69283;48.024;11.090;2023-07-22T05:24:21;7.23;;;2.90;;
79798;SDS011;69283;48.024;11.090;2023-07-22T05:26:47;6.97;;;2.80;;
79798;SDS011;69283;48.024;11.090;2023-07-22T05:29:12;6.30;;;3.60;;
79798;SDS011;69283;48.024;11.090;2023-07-22T05:31:37;8.48;;;3.53;;
79798;SDS011;69283;48.024;11.090;2023-07-22T05:34:03;8.80;;;3.55;;
79798;SDS011;69283;48.024;11.090;2023-07-22T05:36:29;10.73;;;3.08;;
79798;SDS011;69283;48.024;11.090;2023-07-22T05:38:54;12.55;;;3.53;;
79798;SDS011;69283;48.024;11.090;2023-07-22T05:41:19;7.43;;;3.40;;
79798;SDS011;69283;48.024;11.090;2023-07-22T05:43:45;15.10;;;4.45;;
79798;SDS011;69283;48.024;11.090;2023-07-22T05:46:10;35.78;;;5.68;;
79798;SDS011;69283;48.024;11.090;2023-07-22T05:48:35;6.43;;;2.93;;
79798;SDS011;69283;48.024;11.090;2023-07-22T05:51:01;9.63;;;3.70;;
79798;SDS011;69283;48.024;11.090;2023-07-22T05:53:27;7.25;;;3.70;;
79798;SDS011;69283;48.024;11.090;2023-07-22T05:55:53;8.98;;;4.07;;
79798;SDS011;69283;48.024;11.090;2023-07-22T05:58:18;8.40;;;2.88;;
79798;SDS011;69283;48.024;11.090;2023-07-22T06:00:43;6.80;;;2.53;;
79798;SDS011;69283;48.024;11.090;2023-07-22T06:03:09;6.50;;;3.00;;
79798;SDS011;69283;48.024;11.090;2023-07-22T06:05:34;5.60;;;2.53;;
79798;SDS011;69283;48.024;11.090;2023-07-22T06:08:00;9.40;;;2.55;;
79798;SDS011;69283;48.024;11.090;2023-07-22T06:10:28;6.68;;;2.65;;
79798;SDS011;69283;48.024;11.090;2023-07-22T06:12:54;4.40;;;2.22;;
79798;SDS011;69283;48.024;11.090;2023-07-22T06:15:19;6.50;;;1.97;;
79798;SDS011;69283;48.024;11.090;2023-07-22T06:17:45;6.35;;;2.50;;
79798;SDS011;69283;48.024;11.090;2023-07-22T06:20:10;7.00;;;2.67;;
79798;SDS011;69283;48.024;11.090;2023-07-22T06:22:36;7.32;;;2.40;;
79798;SDS011;69283;48.024;11.090;2023-07-22T06:25:01;4.95;;;2.35;;
79798;SDS011;69283;48.024;11.090;2023-07-22T06:27:26;6.67;;;2.53;;
79798;SDS011;69283;48.024;11.090;2023-07-22T06:29:51;5.87;;;2.87;;
79798;SDS011;69283;48.024;11.090;2023-07-22T06:32:17;4.80;;;2.17;;
79798;SDS011;69283;48.024;11.090;2023-07-22T06:34:42;4.47;;;2.23;;
79798;SDS011;69283;48.024;11.090;2023-07-22T06:37:07;7.22;;;2.67;;
79798;SDS011;69283;48.024;11.090;2023-07-22T06:39:33;7.00;;;2.33;;
79798;SDS011;69283;48.024;11.090;2023-07-22T06:41:58;4.60;;;2.05;;
79798;SDS011;69283;48.024;11.090;2023-07-22T06:44:23;5.75;;;2.53;;
79798;SDS011;69283;48.024;11.090;2023-07-22T06:46:48;5.63;;;2.10;;
79798;SDS011;69283;48.024;11.090;2023-07-22T06:49:14;8.40;;;2.47;;
79798;SDS011;69283;48.024;11.090;2023-07-22T06:51:39;5.75;;;2.42;;
79798;SDS011;69283;48.024;11.090;2023-07-22T06:54:05;5.03;;;2.30;;
79798;SDS011;69283;48.024;11.090;2023-07-22T06:56:31;7.88;;;3.85;;
79798;SDS011;69283;48.024;11.090;2023-07-22T06:58:56;5.28;;;2.00;;
79798;SDS011;69283;48.024;11.090;2023-07-22T07:01:21;6.85;;;2.20;;
79798;SDS011;69283;48.024;11.090;2023-07-22T07:03:47;5.72;;;2.30;;
79798;SDS011;69283;48.024;11.090;2023-07-22T07:06:12;7.17;;;2.00;;
79798;SDS011;69283;48.024;11.090;2023-07-22T07:08:37;6.82;;;2.45;;
79798;SDS011;69283;48.024;11.090;2023-07-22T07:11:03;5.35;;;2.00;;
79798;SDS011;69283;48.024;11.090;2023-07-22T07:13:28;7.53;;;2.20;;
79798;SDS011;69283;48.024;11.090;2023-07-22T07:15:54;6.32;;;2.50;;
79798;SDS011;69283;48.024;11.090;2023-07-22T07:18:19;6.47;;;2.45;;
79798;SDS011;69283;48.024;11.090;2023-07-22T07:20:45;7.03;;;2.25;;
79798;SDS011;69283;48.024;11.090;2023-07-22T07:23:10;9.25;;;2.67;;
79798;SDS011;69283;48.024;11.090;2023-07-22T07:25:36;4.70;;;1.77;;
79798;SDS011;69283;48.024;11.090;2023-07-22T07:28:02;4.80;;;1.93;;
79798;SDS011;69283;48.024;11.090;2023-07-22T07:30:28;5.53;;;2.00;;
79798;SDS011;69283;48.024;11.090;2023-07-22T07:32:54;5.18;;;2.13;;
79798;SDS011;69283;48.024;11.090;2023-07-22T07:35:19;4.30;;;1.90;;
79798;SDS011;69283;48.024;11.090;2023-07-22T07:37:44;6.63;;;1.97;;
79798;SDS011;69283;48.024;11.090;2023-07-22T07:40:10;4.10;;;1.63;;
79798;SDS011;69283;48.024;11.090;2023-07-22T07:42:36;5.38;;;2.22;;
79798;SDS011;69283;48.024;11.090;2023-07-22T07:45:01;5.13;;;2.07;;
79798;SDS011;69283;48.024;11.090;2023-07-22T07:47:26;4.80;;;2.15;;
79798;SDS011;69283;48.024;11.090;2023-07-22T07:49:52;5.30;;;1.98;;
79798;SDS011;69283;48.024;11.090;2023-07-22T07:52:17;4.80;;;2.00;;
79798;SDS011;69283;48.024;11.090;2023-07-22T07:54:42;4.28;;;2.00;;
79798;SDS011;69283;48.024;11.090;2023-07-22T07:57:08;4.43;;;1.77;;
79798;SDS011;69283;48.024;11.090;2023-07-22T07:59:33;5.63;;;2.25;;
79798;SDS011;69283;48.024;11.090;2023-07-22T08:01:58;4.28;;;1.77;;
79798;SDS011;69283;48.024;11.090;2023-07-22T08:04:24;5.60;;;2.87;;
79798;SDS011;69283;48.024;11.090;2023-07-22T08:06:49;4.28;;;2.33;;
79798;SDS011;69283;48.024;11.090;2023-07-22T08:09:14;3.63;;;1.50;;
79798;SDS011;69283;48.024;11.090;2023-07-22T08:11:44;4.65;;;1.80;;
79798;SDS011;69283;48.024;11.090;2023-07-22T08:14:10;6.30;;;2.00;;
79798;SDS011;69283;48.024;11.090;2023-07-22T08:16:35;6.38;;;2.20;;
79798;SDS011;69283;48.024;11.090;2023-07-22T08:19:00;6.30;;;2.40;;
79798;SDS011;69283;48.024;11.090;2023-07-22T08:21:26;13.57;;;2.33;;
79798;SDS011;69283;48.024;11.090;2023-07-22T08:23:51;5.32;;;1.83;;
79798;SDS011;69283;48.024;11.090;2023-07-22T08:26:17;7.47;;;2.53;;
79798;SDS011;69283;48.024;11.090;2023-07-22T08:28:46;3.88;;;1.90;;
79798;SDS011;69283;48.024;11.090;2023-07-22T08:31:11;4.10;;;1.83;;
79798;SDS011;69283;48.024;11.090;2023-07-22T08:33:37;4.57;;;1.45;;
79798;SDS011;69283;48.024;11.090;2023-07-22T08:36:02;4.00;;;1.63;;
79798;SDS011;69283;48.024;11.090;2023-07-22T08:38:27;4.50;;;1.83;;
79798;SDS011;69283;48.024;11.090;2023-07-22T08:40:53;6.87;;;2.63;;
79798;SDS011;69283;48.024;11.090;2023-07-22T08:43:21;6.45;;;1.90;;
79798;SDS011;69283;48.024;11.090;2023-07-22T08:45:48;7.40;;;2.33;;
79798;SDS011;69283;48.024;11.090;2023-07-22T08:48:16;6.05;;;2.47;;
79798;SDS011;69283;48.024;11.090;2023-07-22T08:50:51;5.75;;;2.53;;
79798;SDS011;69283;48.024;11.090;2023-07-22T08:53:21;4.63;;;1.90;;
79798;SDS011;69283;48.024;11.090;2023-07-22T08:55:48;6.22;;;2.28;;
79798;SDS011;69283;48.024;11.090;2023-07-22T08:58:14;4.93;;;1.92;;
79798;SDS011;69283;48.024;11.090;2023-07-22T09:00:41;4.53;;;1.60;;
79798;SDS011;69283;48.024;11.090;2023-07-22T09:03:07;5.15;;;2.13;;
79798;SDS011;69283;48.024;11.090;2023-07-22T09:05:33;4.93;;;2.40;;
79798;SDS011;69283;48.024;11.090;2023-07-22T09:08:03;4.25;;;1.88;;
79798;SDS011;69283;48.024;11.090;2023-07-22T09:10:29;4.90;;;1.60;;
79798;SDS011;69283;48.024;11.090;2023-07-22T09:12:56;5.78;;;2.13;;
79798;SDS011;69283;48.024;11.090;2023-07-22T09:15:23;8.48;;;3.40;;
79798;SDS011;69283;48.024;11.090;2023-07-22T09:17:49;5.63;;;2.28;;
79798;SDS011;69283;48.024;11.090;2023-07-22T09:20:17;4.05;;;1.92;;
79798;SDS011;69283;48.024;11.090;2023-07-22T09:22:46;3.88;;;1.80;;
79798;SDS011;69283;48.024;11.090;2023-07-22T09:25:12;6.88;;;2.70;;
79798;SDS011;69283;48.024;11.090;2023-07-22T09:27:46;4.30;;;1.77;;
79798;SDS011;69283;48.024;11.090;2023-07-22T09:32:58;4.35;;;1.70;;
79798;SDS011;69283;48.024;11.090;2023-07-22T09:35:25;4.65;;;1.90;;
79798;SDS011;69283;48.024;11.090;2023-07-22T09:37:53;3.47;;;1.70;;
79798;SDS011;69283;48.024;11.090;2023-07-22T09:42:46;5.75;;;1.63;;
79798;SDS011;69283;48.024;11.090;2023-07-22T09:45:12;4.72;;;2.70;;
79798;SDS011;69283;48.024;11.090;2023-07-22T09:47:41;6.00;;;1.95;;
79798;SDS011;69283;48.024;11.090;2023-07-22T09:50:15;3.25;;;1.70;;
79798;SDS011;69283;48.024;11.090;2023-07-22T09:52:43;7.65;;;2.13;;
79798;SDS011;69283;48.024;11.090;2023-07-22T09:55:17;4.63;;;1.75;;
79798;SDS011;69283;48.024;11.090;2023-07-22T09:57:44;8.00;;;1.88;;
79798;SDS011;69283;48.024;11.090;2023-07-22T10:00:18;6.75;;;2.28;;
79798;SDS011;69283;48.024;11.090;2023-07-22T10:02:47;4.32;;;1.80;;
79798;SDS011;69283;48.024;11.090;2023-07-22T10:05:17;4.30;;;1.27;;
79798;SDS011;69283;48.024;11.090;2023-07-22T10:07:44;5.00;;;1.65;;
79798;SDS011;69283;48.024;11.090;2023-07-22T10:10:19;3.40;;;1.63;;
79798;SDS011;69283;48.024;11.090;2023-07-22T10:12:45;4.85;;;1.90;;
79798;SDS011;69283;48.024;11.090;2023-07-22T10:15:12;3.75;;;1.60;;
79798;SDS011;69283;48.024;11.090;2023-07-22T10:17:42;3.40;;;1.45;;
79798;SDS011;69283;48.024;11.090;2023-07-22T10:20:09;3.78;;;1.40;;
79798;SDS011;69283;48.024;11.090;2023-07-22T10:22:40;3.42;;;1.58;;
79798;SDS011;69283;48.024;11.090;2023-07-22T10:25:10;3.63;;;1.75;;
79798;SDS011;69283;48.024;11.090;2023-07-22T10:27:37;4.40;;;1.50;;
79798;SDS011;69283;48.024;11.090;2023-07-22T10:30:05;5.32;;;2.88;;
79798;SDS011;69283;48.024;11.090;2023-07-22T10:32:38;5.07;;;1.77;;
79798;SDS011;69283;48.024;11.090;2023-07-22T10:35:03;5.20;;;1.30;;
79798;SDS011;69283;48.024;11.090;2023-07-22T10:37:30;6.65;;;1.77;;
79798;SDS011;69283;48.024;11.090;2023-07-22T10:40:01;3.80;;;1.48;;
79798;SDS011;69283;48.024;11.090;2023-07-22T10:42:42;4.88;;;1.70;;
79798;SDS011;69283;48.024;11.090;2023-07-22T10:45:23;5.68;;;1.60;;
79798;SDS011;69283;48.024;11.090;2023-07-22T10:50:44;13.35;;;4.82;;
79798;SDS011;69283;48.024;11.090;2023-07-22T11:12:03;4.28;;;1.77;;
79798;SDS011;69283;48.024;11.090;2023-07-22T11:14:30;5.72;;;1.75;;
79798;SDS011;69283;48.024;11.090;2023-07-22T11:16:57;4.63;;;1.55;;
79798;SDS011;69283;48.024;11.090;2023-07-22T11:19:25;5.00;;;1.80;;
79798;SDS011;69283;48.024;11.090;2023-07-22T11:21:51;5.10;;;2.10;;
79798;SDS011;69283;48.024;11.090;2023-07-22T11:24:17;4.13;;;1.90;;
79798;SDS011;69283;48.024;11.090;2023-07-22T11:26:47;4.22;;;2.00;;
79798;SDS011;69283;48.024;11.090;2023-07-22T11:29:13;4.97;;;1.90;;
79798;SDS011;69283;48.024;11.090;2023-07-22T11:31:40;4.95;;;1.98;;
79798;SDS011;69283;48.024;11.090;2023-07-22T11:34:13;7.25;;;1.80;;
79798;SDS011;69283;48.024;11.090;2023-07-22T11:36:39;5.70;;;2.05;;
79798;SDS011;69283;48.024;11.090;2023-07-22T11:39:06;9.07;;;1.75;;
79798;SDS011;69283;48.024;11.090;2023-07-22T11:41:34;4.10;;;1.88;;
79798;SDS011;69283;48.024;11.090;2023-07-22T11:44:00;6.80;;;2.17;;
79798;SDS011;69283;48.024;11.090;2023-07-22T11:46:27;4.70;;;1.83;;
79798;SDS011;69283;48.024;11.090;2023-07-22T11:48:54;6.15;;;2.00;;
79798;SDS011;69283;48.024;11.090;2023-07-22T11:51:23;3.58;;;1.30;;
79798;SDS011;69283;48.024;11.090;2023-07-22T11:53:50;4.40;;;2.10;;
79798;SDS011;69283;48.024;11.090;2023-07-22T11:56:20;5.35;;;1.88;;
79798;SDS011;69283;48.024;11.090;2023-07-22T11:58:53;3.25;;;1.52;;
79798;SDS011;69283;48.024;11.090;2023-07-22T12:01:19;3.28;;;1.42;;
79798;SDS011;69283;48.024;11.090;2023-07-22T12:03:45;4.55;;;2.10;;
79798;SDS011;69283;48.024;11.090;2023-07-22T12:06:11;4.35;;;1.58;;
79798;SDS011;69283;48.024;11.090;2023-07-22T12:08:42;4.00;;;2.42;;
79798;SDS011;69283;48.024;11.090;2023-07-22T12:11:15;4.65;;;2.22;;
79798;SDS011;69283;48.024;11.090;2023-07-22T12:13:44;4.68;;;2.00;;
79798;SDS011;69283;48.024;11.090;2023-07-22T12:16:20;4.85;;;2.08;;
79798;SDS011;69283;48.024;11.090;2023-07-22T12:18:49;5.10;;;2.03;;
79798;SDS011;69283;48.024;11.090;2023-07-22T12:21:15;4.25;;;1.80;;
79798;SDS011;69283;48.024;11.090;2023-07-22T12:23:41;4.60;;;1.80;;
79798;SDS011;69283;48.024;11.090;2023-07-22T12:26:07;4.55;;;2.17;;
79798;SDS011;69283;48.024;11.090;2023-07-22T12:28:33;5.32;;;1.92;;
79798;SDS011;69283;48.024;11.090;2023-07-22T12:30:58;4.03;;;1.88;;
79798;SDS011;69283;48.024;11.090;2023-07-22T12:33:24;7.07;;;1.95;;
79798;SDS011;69283;48.024;11.090;2023-07-22T12:35:50;3.67;;;1.77;;
79798;SDS011;69283;48.024;11.090;2023-07-22T12:38:16;5.63;;;1.92;;
79798;SDS011;69283;48.024;11.090;2023-07-22T12:40:41;4.47;;;1.83;;
79798;SDS011;69283;48.024;11.090;2023-07-22T12:43:07;3.03;;;1.45;;
79798;SDS011;69283;48.024;11.090;2023-07-22T12:45:33;4.80;;;1.80;;
79798;SDS011;69283;48.024;11.090;2023-07-22T12:47:58;4.00;;;1.63;;
79798;SDS011;69283;48.024;11.090;2023-07-22T12:50:24;3.97;;;1.65;;
79798;SDS011;69283;48.024;11.090;2023-07-22T12:52:49;4.43;;;1.67;;
79798;SDS011;69283;48.024;11.090;2023-07-22T12:55:15;3.47;;;1.75;;
79798;SDS011;69283;48.024;11.090;2023-07-22T12:57:40;5.40;;;1.92;;
79798;SDS011;69283;48.024;11.090;2023-07-22T13:00:05;3.67;;;1.40;;
79798;SDS011;69283;48.024;11.090;2023-07-22T13:02:34;3.97;;;1.77;;
79798;SDS011;69283;48.024;11.090;2023-07-22T13:05:00;7.00;;;1.88;;
79798;SDS011;69283;48.024;11.090;2023-07-22T13:07:25;3.88;;;1.65;;
79798;SDS011;69283;48.024;11.090;2023-07-22T13:09:50;5.55;;;1.63;;
79798;SDS011;69283;48.024;11.090;2023-07-22T13:12:18;3.83;;;1.60;;
79798;SDS011;69283;48.024;11.090;2023-07-22T13:14:44;4.10;;;2.05;;
79798;SDS011;69283;48.024;11.090;2023-07-22T13:17:10;5.45;;;1.73;;
79798;SDS011;69283;48.024;11.090;2023-07-22T13:19:36;4.77;;;1.87;;
79798;SDS011;69283;48.024;11.090;2023-07-22T13:22:01;3.90;;;1.83;;
79798;SDS011;69283;48.024;11.090;2023-07-22T13:24:26;5.28;;;1.88;;
79798;SDS011;69283;48.024;11.090;2023-07-22T13:26:51;2.88;;;1.58;;
79798;SDS011;69283;48.024;11.090;2023-07-22T13:29:17;5.23;;;2.00;;
79798;SDS011;69283;48.024;11.090;2023-07-22T13:31:42;5.13;;;1.80;;
79798;SDS011;69283;48.024;11.090;2023-07-22T13:34:07;3.80;;;1.60;;
79798;SDS011;69283;48.024;11.090;2023-07-22T13:36:32;4.77;;;2.23;;
79798;SDS011;69283;48.024;11.090;2023-07-22T13:38:58;5.28;;;2.30;;
79798;SDS011;69283;48.024;11.090;2023-07-22T13:41:23;4.18;;;1.65;;
79798;SDS011;69283;48.024;11.090;2023-07-22T13:43:48;5.50;;;2.13;;
79798;SDS011;69283;48.024;11.090;2023-07-22T13:46:14;6.10;;;2.05;;
79798;SDS011;69283;48.024;11.090;2023-07-22T13:48:39;6.07;;;2.23;;
79798;SDS011;69283;48.024;11.090;2023-07-22T13:51:04;5.50;;;2.65;;
79798;SDS011;69283;48.024;11.090;2023-07-22T13:53:30;6.17;;;2.57;;
79798;SDS011;69283;48.024;11.090;2023-07-22T13:55:55;4.40;;;1.90;;
79798;SDS011;69283;48.024;11.090;2023-07-22T13:58:20;5.77;;;2.87;;
79798;SDS011;69283;48.024;11.090;2023-07-22T14:00:45;5.68;;;2.05;;
79798;SDS011;69283;48.024;11.090;2023-07-22T14:03:11;5.55;;;2.05;;
79798;SDS011;69283;48.024;11.090;2023-07-22T14:05:36;5.15;;;2.30;;
79798;SDS011;69283;48.024;11.090;2023-07-22T14:08:01;5.27;;;2.27;;
79798;SDS011;69283;48.024;11.090;2023-07-22T14:10:27;4.50;;;1.90;;
79798;SDS011;69283;48.024;11.090;2023-07-22T14:12:52;5.72;;;2.97;;
79798;SDS011;69283;48.024;11.090;2023-07-22T14:15:17;5.37;;;2.23;;
79798;SDS011;69283;48.024;11.090;2023-07-22T14:17:43;6.20;;;2.42;;
79798;SDS011;69283;48.024;11.090;2023-07-22T14:20:09;5.50;;;1.80;;
79798;SDS011;69283;48.024;11.090;2023-07-22T14:22:36;5.45;;;2.00;;
79798;SDS011;69283;48.024;11.090;2023-07-22T14:25:02;4.15;;;2.50;;
79798;SDS011;69283;48.024;11.090;2023-07-22T14:27:27;6.95;;;2.30;;
79798;SDS011;69283;48.024;11.090;2023-07-22T14:29:53;6.88;;;2.67;;
79798;SDS011;69283;48.024;11.090;2023-07-22T14:32:18;4.97;;;2.33;;
79798;SDS011;69283;48.024;11.090;2023-07-22T14:34:43;7.50;;;2.60;;
79798;SDS011;69283;48.024;11.090;2023-07-22T14:37:08;6.00;;;2.28;;
79798;SDS011;69283;48.024;11.090;2023-07-22T14:39:34;7.63;;;2.67;;
79798;SDS011;69283;48.024;11.090;2023-07-22T14:41:59;5.63;;;2.65;;
79798;SDS011;69283;48.024;11.090;2023-07-22T14:44:24;4.82;;;2.15;;
79798;SDS011;69283;48.024;11.090;2023-07-22T14:46:50;5.90;;;2.07;;
79798;SDS011;69283;48.024;11.090;2023-07-22T14:49:15;4.33;;;2.00;;
79798;SDS011;69283;48.024;11.090;2023-07-22T14:51:40;7.20;;;2.60;;
79798;SDS011;69283;48.024;11.090;2023-07-22T14:54:06;7.30;;;2.58;;
79798;SDS011;69283;48.024;11.090;2023-07-22T14:56:31;9.13;;;2.60;;